createdAt,value
2022-12-29T00:01:38.185Z,63.98
2022-12-29T00:04:14.462Z,64.09
2022-12-29T00:06:46.423Z,64.02
2022-12-29T00:09:18.138Z,64.00
2022-12-29T00:11:49.718Z,64.03
2022-12-29T00:14:37.960Z,64.00
2022-12-29T00:17:08.657Z,63.92
2022-12-29T00:19:57.347Z,63.95
2022-12-29T00:22:48.035Z,63.97
2022-12-29T00:25:48.103Z,63.97
2022-12-29T00:28:36.219Z,63.93
2022-12-29T00:31:31.402Z,63.94
2022-12-29T00:34:20.701Z,63.92
2022-12-29T00:36:51.396Z,63.79
2022-12-29T00:39:40.310Z,63.72
2022-12-29T00:42:29.566Z,63.71
2022-12-29T00:45:00.246Z,63.78
2022-12-29T00:47:31.002Z,63.58
2022-12-29T00:50:01.700Z,63.62
2022-12-29T00:52:32.606Z,63.65
2022-12-29T00:55:03.313Z,63.62
2022-12-29T00:57:33.979Z,63.67
2022-12-29T01:00:05.596Z,63.55
2022-12-29T01:02:36.233Z,63.61
2022-12-29T01:05:08.624Z,63.61
2022-12-29T01:07:39.377Z,63.73
2022-12-29T01:10:15.782Z,63.63
2022-12-29T01:12:48.819Z,63.63
2022-12-29T01:15:19.684Z,63.56
2022-12-29T01:17:50.816Z,63.53
2022-12-29T01:20:22.108Z,63.63
2022-12-29T01:22:52.902Z,63.54
2022-12-29T01:25:24.260Z,63.48
2022-12-29T01:27:55.086Z,63.49
2022-12-29T01:30:25.784Z,63.50
2022-12-29T01:32:57.691Z,63.54
2022-12-29T01:35:28.352Z,63.51
2022-12-29T01:37:59.066Z,63.37
2022-12-29T01:40:30.207Z,63.49
2022-12-29T01:43:00.887Z,63.37
2022-12-29T01:45:31.731Z,63.40
2022-12-29T01:48:07.322Z,63.35
2022-12-29T01:50:42.404Z,63.32
2022-12-29T01:53:18.445Z,63.35
2022-12-29T01:55:53.485Z,63.25
2022-12-29T01:58:28.711Z,63.22
2022-12-29T02:00:57.902Z,63.18
2022-12-29T02:03:31.626Z,63.24
2022-12-29T02:06:04.774Z,63.28
2022-12-29T02:08:35.593Z,63.34
2022-12-29T02:11:07.223Z,63.28
2022-12-29T02:13:38.546Z,63.34
2022-12-29T02:16:23.856Z,63.55
2022-12-29T02:19:03.161Z,63.71
2022-12-29T02:21:57.053Z,63.84
2022-12-29T02:25:06.679Z,63.84
2022-12-29T02:28:05.770Z,64.01
2022-12-29T02:30:45.120Z,64.11
2022-12-29T02:33:36.356Z,64.06
2022-12-29T02:36:20.507Z,64.17
2022-12-29T02:39:04.335Z,64.20
2022-12-29T02:41:48.986Z,64.33
2022-12-29T02:44:27.115Z,64.45
2022-12-29T02:47:07.254Z,64.67
2022-12-29T02:49:46.409Z,64.71
2022-12-29T02:52:22.343Z,64.77
2022-12-29T02:54:55.373Z,65.04
2022-12-29T02:57:35.930Z,65.01
2022-12-29T03:00:10.853Z,65.29
2022-12-29T03:03:04.892Z,65.55
2022-12-29T03:05:53.196Z,65.50
2022-12-29T03:08:31.060Z,65.50
2022-12-29T03:11:04.957Z,65.61
2022-12-29T03:14:03.266Z,65.66
2022-12-29T03:16:42.943Z,65.84
2022-12-29T03:19:21.959Z,66.03
2022-12-29T03:22:14.987Z,66.03
2022-12-29T03:24:49.820Z,66.14
2022-12-29T03:27:27.763Z,66.25
2022-12-29T03:30:02.739Z,66.43
2022-12-29T03:32:34.352Z,66.59
2022-12-29T03:35:06.618Z,66.59
2022-12-29T03:37:42.786Z,66.69
2022-12-29T03:40:13.825Z,66.77
2022-12-29T03:42:45.651Z,66.79
2022-12-29T03:45:17.336Z,67.11
2022-12-29T03:47:49.610Z,67.05
2022-12-29T03:50:20.679Z,67.25
2022-12-29T03:52:51.373Z,67.35
2022-12-29T03:55:22.101Z,67.52
2022-12-29T03:57:52.878Z,67.71
2022-12-29T04:00:31.913Z,67.99
2022-12-29T04:03:03.220Z,67.97
2022-12-29T04:05:34.192Z,67.85
2022-12-29T04:08:04.993Z,68.01
2022-12-29T04:10:36.260Z,68.20
2022-12-29T04:13:09.448Z,68.27
2022-12-29T04:15:40.270Z,67.97
2022-12-29T04:18:11.910Z,68.03
2022-12-29T04:21:00.444Z,68.09
2022-12-29T04:23:33.718Z,68.15
2022-12-29T04:26:04.670Z,68.16
2022-12-29T04:28:35.859Z,67.99
2022-12-29T04:31:18.103Z,67.99
2022-12-29T04:33:50.753Z,67.98
2022-12-29T04:36:27.790Z,68.28
2022-12-29T04:39:01.301Z,68.44
2022-12-29T04:41:32.246Z,68.34
2022-12-29T04:44:03.101Z,68.38
2022-12-29T04:46:42.912Z,68.23
2022-12-29T04:49:22.621Z,68.25
2022-12-29T04:52:15.989Z,68.38
2022-12-29T04:54:48.646Z,68.20
2022-12-29T04:57:22.967Z,68.15
2022-12-29T04:59:57.754Z,68.23
2022-12-29T05:02:29.206Z,68.17
2022-12-29T05:05:01.274Z,68.12
2022-12-29T05:07:34.456Z,68.00
2022-12-29T05:10:06.016Z,68.18
2022-12-29T05:12:38.702Z,68.20
2022-12-29T05:15:12.374Z,68.16
2022-12-29T05:17:43.228Z,68.08
2022-12-29T05:20:14.743Z,67.97
2022-12-29T05:22:46.289Z,68.16
2022-12-29T05:25:16.999Z,68.11
2022-12-29T05:28:04.907Z,67.99
2022-12-29T05:30:45.693Z,67.77
2022-12-29T05:33:16.988Z,67.90
2022-12-29T05:35:49.391Z,68.02
2022-12-29T05:38:20.199Z,67.77
2022-12-29T05:40:51.044Z,67.55
2022-12-29T05:43:42.009Z,67.22
2022-12-29T05:46:33.063Z,67.34
2022-12-29T05:49:22.305Z,67.72
2022-12-29T05:52:22.177Z,67.52
2022-12-29T05:54:53.397Z,67.53
2022-12-29T05:57:26.158Z,67.57
2022-12-29T06:00:09.839Z,67.22
2022-12-29T06:02:45.602Z,67.36
2022-12-29T06:05:17.825Z,67.35
2022-12-29T06:07:48.686Z,67.38
2022-12-29T06:10:21.161Z,67.38
2022-12-29T06:12:59.818Z,67.22
2022-12-29T06:15:30.594Z,67.42
2022-12-29T06:18:02.070Z,67.23
2022-12-29T06:20:32.920Z,67.05
2022-12-29T06:23:03.756Z,66.80
2022-12-29T06:25:36.964Z,66.87
2022-12-29T06:28:07.775Z,66.89
2022-12-29T06:30:40.871Z,67.01
2022-12-29T06:33:11.507Z,66.86
2022-12-29T06:35:42.181Z,66.96
2022-12-29T06:38:12.966Z,66.78
2022-12-29T06:40:46.161Z,66.96
2022-12-29T06:43:25.939Z,67.14
2022-12-29T06:46:22.968Z,67.02
2022-12-29T06:48:53.768Z,66.73
2022-12-29T06:51:24.410Z,66.82
2022-12-29T06:53:55.374Z,66.52
2022-12-29T06:56:26.129Z,66.75
2022-12-29T06:58:56.799Z,66.57
2022-12-29T07:01:28.246Z,66.78
2022-12-29T07:03:59.259Z,66.65
2022-12-29T07:06:30.000Z,66.79
2022-12-29T07:09:00.694Z,66.56
2022-12-29T07:11:31.377Z,66.69
2022-12-29T07:14:02.113Z,66.20
2022-12-29T07:16:35.288Z,66.50
2022-12-29T07:19:06.147Z,66.58
2022-12-29T07:21:36.807Z,66.36
2022-12-29T07:24:09.477Z,66.45
2022-12-29T07:26:40.294Z,66.45
2022-12-29T07:29:11.342Z,66.02
2022-12-29T07:31:42.655Z,66.04
2022-12-29T07:34:13.390Z,65.94
2022-12-29T07:36:44.070Z,65.90
2022-12-29T07:39:14.750Z,65.98
2022-12-29T07:41:45.489Z,65.80
2022-12-29T07:44:21.344Z,65.84
2022-12-29T07:47:16.801Z,65.96
2022-12-29T07:49:47.630Z,65.73
2022-12-29T07:52:18.341Z,65.77
2022-12-29T07:54:49.195Z,65.70
2022-12-29T07:57:20.000Z,65.75
2022-12-29T07:59:51.246Z,65.34
2022-12-29T08:02:22.119Z,65.26
2022-12-29T08:04:52.930Z,65.33
2022-12-29T08:07:23.745Z,65.33
2022-12-29T08:09:54.770Z,65.35
2022-12-29T08:12:25.615Z,65.33
2022-12-29T08:14:56.489Z,65.25
2022-12-29T08:17:27.234Z,65.20
2022-12-29T08:19:58.022Z,65.09
2022-12-29T08:22:28.993Z,65.04
2022-12-29T08:24:59.798Z,65.02
2022-12-29T08:27:30.744Z,64.95
2022-12-29T08:30:01.779Z,64.85
2022-12-29T08:32:32.647Z,64.73
2022-12-29T08:35:03.613Z,64.50
2022-12-29T08:37:35.607Z,64.34
2022-12-29T08:40:08.379Z,64.36
2022-12-29T08:42:39.207Z,64.37
2022-12-29T08:45:11.715Z,64.34
2022-12-29T08:47:42.785Z,64.27
2022-12-29T08:50:14.171Z,64.00
2022-12-29T08:52:44.922Z,63.75
2022-12-29T08:55:15.846Z,63.54
2022-12-29T08:57:46.701Z,63.47
2022-12-29T09:00:23.199Z,63.20
2022-12-29T09:02:55.150Z,63.03
2022-12-29T09:05:26.282Z,63.11
2022-12-29T09:07:57.473Z,63.04
2022-12-29T09:10:28.323Z,62.99
2022-12-29T09:12:59.136Z,62.85
2022-12-29T09:15:30.006Z,62.83
2022-12-29T09:18:00.841Z,62.85
2022-12-29T09:20:31.801Z,62.79
2022-12-29T09:23:02.703Z,62.78
2022-12-29T09:25:33.571Z,62.69
2022-12-29T09:28:08.781Z,62.67
2022-12-29T09:30:39.618Z,62.47
2022-12-29T09:33:10.447Z,62.26
2022-12-29T09:35:45.532Z,62.11
2022-12-29T09:38:16.985Z,62.18
2022-12-29T09:40:52.484Z,62.04
2022-12-29T09:43:45.499Z,61.79
2022-12-29T09:46:26.292Z,61.58
2022-12-29T09:49:09.742Z,61.57
2022-12-29T09:51:44.676Z,61.61
2022-12-29T09:54:31.229Z,61.61
2022-12-29T09:57:02.193Z,61.43
2022-12-29T09:59:41.532Z,61.44
2022-12-29T10:02:26.003Z,61.28
2022-12-29T10:04:57.041Z,61.38
2022-12-29T10:07:39.584Z,61.27
2022-12-29T10:10:22.497Z,61.36
2022-12-29T10:13:03.612Z,61.25
2022-12-29T10:15:48.569Z,61.20
2022-12-29T10:18:41.449Z,61.13
2022-12-29T10:21:21.529Z,60.95
2022-12-29T10:23:55.351Z,60.97
2022-12-29T10:26:29.503Z,60.91
2022-12-29T10:29:05.610Z,61.12
2022-12-29T10:31:44.982Z,61.02
2022-12-29T10:34:23.023Z,60.90
2022-12-29T10:37:04.803Z,60.89
2022-12-29T10:39:42.174Z,60.85
2022-12-29T10:42:28.350Z,60.73
2022-12-29T10:45:01.900Z,60.59
2022-12-29T10:47:37.186Z,60.64
2022-12-29T10:50:08.707Z,60.49
2022-12-29T10:52:42.808Z,60.45
2022-12-29T10:55:19.617Z,60.65
2022-12-29T10:57:51.681Z,60.67
2022-12-29T11:00:25.141Z,60.64
2022-12-29T11:03:11.212Z,60.61
2022-12-29T11:05:48.518Z,60.51
2022-12-29T11:08:22.346Z,60.51
2022-12-29T11:11:03.075Z,60.48
2022-12-29T11:13:39.280Z,60.25
2022-12-29T11:16:14.170Z,60.26
2022-12-29T11:18:50.207Z,60.29
2022-12-29T11:21:33.843Z,60.27
2022-12-29T11:24:07.662Z,60.17
2022-12-29T11:26:38.605Z,60.15
2022-12-29T11:29:25.665Z,59.94
2022-12-29T11:32:00.129Z,60.00
2022-12-29T11:34:36.686Z,59.98
2022-12-29T11:37:13.672Z,59.83
2022-12-29T11:39:53.711Z,59.90
2022-12-29T11:42:34.119Z,59.88
2022-12-29T11:45:16.685Z,59.90
2022-12-29T11:47:50.539Z,59.70
2022-12-29T11:50:25.187Z,59.86
2022-12-29T11:53:03.579Z,59.65
2022-12-29T11:55:35.017Z,59.63
2022-12-29T11:58:07.483Z,59.51
2022-12-29T12:00:41.926Z,59.59
2022-12-29T12:03:19.263Z,59.72
2022-12-29T12:05:56.594Z,59.62
2022-12-29T12:08:37.085Z,59.53
2022-12-29T12:11:14.560Z,59.68
2022-12-29T12:13:53.082Z,59.63
2022-12-29T12:16:29.539Z,59.61
2022-12-29T12:19:11.980Z,59.45
2022-12-29T12:21:46.284Z,59.46
2022-12-29T12:24:34.819Z,59.45
2022-12-29T12:27:15.333Z,59.68
2022-12-29T12:29:55.129Z,59.54
2022-12-29T12:32:30.170Z,59.58
2022-12-29T12:35:01.328Z,59.62
2022-12-29T12:37:55.031Z,59.42
2022-12-29T12:40:49.291Z,59.39
2022-12-29T12:43:38.946Z,59.56
2022-12-29T12:46:21.730Z,59.46
2022-12-29T12:49:14.719Z,59.46
2022-12-29T12:51:53.127Z,59.53
2022-12-29T12:54:41.192Z,59.50
2022-12-29T12:57:22.880Z,59.54
2022-12-29T13:00:04.242Z,59.55
2022-12-29T13:02:49.835Z,59.33
2022-12-29T13:05:40.720Z,59.36
2022-12-29T13:08:45.072Z,59.53
2022-12-29T13:11:25.589Z,59.29
2022-12-29T13:14:32.513Z,59.17
2022-12-29T13:17:12.465Z,59.14
2022-12-29T13:19:52.962Z,59.03
2022-12-29T13:22:31.476Z,58.96
2022-12-29T13:25:21.571Z,59.15
2022-12-29T13:27:57.150Z,58.97
2022-12-29T13:30:35.718Z,59.18
2022-12-29T13:33:21.401Z,58.98
2022-12-29T13:36:12.923Z,58.94
2022-12-29T13:38:49.098Z,58.87
2022-12-29T13:41:27.066Z,59.13
2022-12-29T13:44:00.062Z,58.99
2022-12-29T13:46:36.067Z,59.00
2022-12-29T13:49:10.820Z,59.12
2022-12-29T13:51:49.903Z,59.09
2022-12-29T13:54:33.954Z,59.08
2022-12-29T13:57:13.081Z,59.20
2022-12-29T13:59:53.089Z,59.10
2022-12-29T14:02:34.322Z,59.00
2022-12-29T14:05:08.064Z,58.93
2022-12-29T14:07:42.051Z,59.13
2022-12-29T14:10:31.419Z,58.94
2022-12-29T14:13:08.437Z,58.88
2022-12-29T14:15:43.557Z,58.80
2022-12-29T14:18:19.909Z,58.85
2022-12-29T14:21:03.400Z,58.83
2022-12-29T14:23:41.982Z,58.68
2022-12-29T14:26:18.658Z,58.84
2022-12-29T14:28:51.130Z,58.65
2022-12-29T14:31:42.423Z,58.87
2022-12-29T14:34:40.604Z,58.78
2022-12-29T14:37:27.888Z,58.63
2022-12-29T14:40:19.764Z,58.65
2022-12-29T14:42:52.778Z,58.74
2022-12-29T14:45:33.902Z,58.59
2022-12-29T14:48:23.251Z,58.75
2022-12-29T14:50:54.834Z,58.70
2022-12-29T14:53:51.209Z,58.78
2022-12-29T14:56:27.226Z,58.76
2022-12-29T14:59:01.353Z,58.72
2022-12-29T15:01:42.521Z,58.66
2022-12-29T15:04:22.804Z,58.74
2022-12-29T15:06:54.886Z,58.86
2022-12-29T15:09:32.382Z,58.61
2022-12-29T15:12:11.068Z,58.72
2022-12-29T15:14:53.915Z,58.77
2022-12-29T15:17:31.216Z,58.65
2022-12-29T15:20:15.867Z,58.95
2022-12-29T15:22:51.478Z,58.86
2022-12-29T15:25:22.803Z,59.05
2022-12-29T15:27:56.066Z,58.90
2022-12-29T15:30:27.343Z,58.91
2022-12-29T15:32:58.154Z,59.07
2022-12-29T15:35:32.758Z,59.00
2022-12-29T15:38:15.065Z,58.93
2022-12-29T15:40:47.690Z,58.73
2022-12-29T15:43:46.757Z,59.04
2022-12-29T15:46:18.437Z,58.87
2022-12-29T15:48:50.474Z,58.91
2022-12-29T15:51:27.449Z,58.75
2022-12-29T15:53:59.603Z,58.66
2022-12-29T15:56:32.743Z,58.81
2022-12-29T15:59:04.266Z,58.86
2022-12-29T16:01:37.789Z,58.98
2022-12-29T16:04:11.204Z,59.00
2022-12-29T16:06:50.126Z,58.85
2022-12-29T16:09:31.245Z,58.97
2022-12-29T16:12:05.095Z,59.08
2022-12-29T16:14:44.230Z,59.15
2022-12-29T16:17:20.363Z,59.14
2022-12-29T16:19:55.029Z,59.10
2022-12-29T16:22:31.508Z,59.37
2022-12-29T16:25:05.894Z,59.19
2022-12-29T16:27:41.907Z,59.32
2022-12-29T16:30:24.336Z,59.35
2022-12-29T16:33:01.476Z,59.33
2022-12-29T16:35:41.378Z,59.53
2022-12-29T16:38:17.646Z,59.52
2022-12-29T16:40:56.456Z,59.51
2022-12-29T16:43:29.659Z,59.66
2022-12-29T16:46:29.656Z,59.65
2022-12-29T16:49:01.190Z,59.96
2022-12-29T16:51:37.549Z,59.76
2022-12-29T16:54:09.150Z,59.90
2022-12-29T16:56:46.202Z,59.87
2022-12-29T16:59:32.971Z,60.07
2022-12-29T17:02:09.513Z,59.97
2022-12-29T17:04:41.038Z,60.10
2022-12-29T17:07:19.605Z,59.98
2022-12-29T17:09:51.264Z,60.02
2022-12-29T17:12:24.177Z,59.92
2022-12-29T17:14:57.822Z,59.92
2022-12-29T17:17:34.953Z,59.96
2022-12-29T17:20:08.783Z,60.01
2022-12-29T17:22:39.648Z,60.07
2022-12-29T17:25:16.173Z,59.99
2022-12-29T17:27:52.084Z,59.97
2022-12-29T17:30:29.736Z,59.92
2022-12-29T17:33:08.975Z,60.01
2022-12-29T17:35:40.173Z,59.86
2022-12-29T17:38:21.094Z,59.89
2022-12-29T17:40:52.698Z,59.78
2022-12-29T17:43:23.500Z,59.73
2022-12-29T17:45:57.840Z,59.89
2022-12-29T17:48:29.180Z,59.76
2022-12-29T17:51:00.397Z,59.81
2022-12-29T17:53:32.370Z,59.74
2022-12-29T17:56:03.326Z,59.70
2022-12-29T17:58:35.437Z,59.70
2022-12-29T18:01:08.183Z,59.59
2022-12-29T18:03:41.208Z,59.75
2022-12-29T18:06:14.687Z,59.62
2022-12-29T18:08:45.600Z,59.84
2022-12-29T18:11:25.207Z,59.83
2022-12-29T18:13:57.328Z,59.91
2022-12-29T18:16:28.310Z,59.74
2022-12-29T18:18:59.152Z,59.85
2022-12-29T18:21:30.036Z,59.74
2022-12-29T18:24:01.034Z,59.83
2022-12-29T18:26:35.736Z,59.85
2022-12-29T18:29:06.721Z,59.78
2022-12-29T18:31:38.554Z,59.96
2022-12-29T18:34:16.335Z,59.81
2022-12-29T18:36:47.374Z,59.81
2022-12-29T18:39:18.042Z,59.83
2022-12-29T18:41:48.768Z,59.91
2022-12-29T18:44:20.699Z,59.87
2022-12-29T18:46:52.314Z,59.93
2022-12-29T18:49:24.459Z,59.84
2022-12-29T18:51:55.409Z,59.94
2022-12-29T18:54:31.540Z,60.06
2022-12-29T18:57:03.206Z,60.12
2022-12-29T18:59:33.884Z,60.27
2022-12-29T19:02:04.581Z,60.26
2022-12-29T19:04:35.615Z,60.20
2022-12-29T19:07:06.369Z,60.18
2022-12-29T19:09:37.432Z,60.05
2022-12-29T19:12:14.867Z,60.03
2022-12-29T19:14:46.634Z,60.01
2022-12-29T19:17:17.453Z,60.09
2022-12-29T19:19:48.199Z,60.18
2022-12-29T19:22:19.163Z,59.84
2022-12-29T19:24:53.626Z,60.06
2022-12-29T19:27:27.218Z,59.98
2022-12-29T19:29:57.921Z,60.22
2022-12-29T19:32:28.700Z,60.13
2022-12-29T19:34:59.604Z,60.12
2022-12-29T19:37:30.290Z,60.04
2022-12-29T19:40:01.233Z,60.40
2022-12-29T19:42:32.144Z,60.24
2022-12-29T19:45:03.698Z,60.34
2022-12-29T19:47:35.175Z,60.29
2022-12-29T19:50:08.680Z,60.55
2022-12-29T19:52:39.493Z,60.65
2022-12-29T19:55:13.206Z,60.57
2022-12-29T19:57:44.934Z,60.55
2022-12-29T20:00:17.533Z,60.64
2022-12-29T20:02:48.480Z,60.57
2022-12-29T20:05:19.746Z,60.80
2022-12-29T20:07:50.510Z,60.79
2022-12-29T20:10:22.260Z,60.80
2022-12-29T20:12:53.264Z,60.62
2022-12-29T20:15:24.506Z,60.82
2022-12-29T20:18:13.330Z,60.74
2022-12-29T20:20:45.124Z,60.77
2022-12-29T20:23:15.872Z,60.71
2022-12-29T20:25:47.506Z,60.57
2022-12-29T20:28:19.087Z,60.57
2022-12-29T20:30:57.616Z,60.60
2022-12-29T20:33:29.407Z,60.66
2022-12-29T20:36:10.260Z,60.71
2022-12-29T20:38:42.183Z,60.68
2022-12-29T20:41:14.331Z,60.74
2022-12-29T20:43:45.221Z,60.65
2022-12-29T20:46:20.879Z,60.64
2022-12-29T20:48:53.575Z,60.65
2022-12-29T20:51:24.421Z,60.66
2022-12-29T20:53:55.645Z,60.75
2022-12-29T20:56:29.281Z,60.60
2022-12-29T20:59:26.381Z,60.66
2022-12-29T21:01:51.175Z,60.56
2022-12-29T21:04:22.215Z,60.74
2022-12-29T21:06:52.997Z,60.66
2022-12-29T21:09:24.090Z,60.50
2022-12-29T21:11:54.899Z,60.62
2022-12-29T21:14:25.625Z,60.59
2022-12-29T21:16:58.166Z,60.59
2022-12-29T21:19:29.148Z,60.65
2022-12-29T21:22:01.017Z,60.54
2022-12-29T21:24:31.883Z,60.62
2022-12-29T21:27:03.166Z,60.45
2022-12-29T21:29:34.337Z,60.37
2022-12-29T21:32:06.753Z,60.43
2022-12-29T21:34:38.714Z,60.48
2022-12-29T21:37:09.682Z,60.36
2022-12-29T21:39:40.605Z,60.27
2022-12-29T21:42:11.528Z,60.27
2022-12-29T21:44:56.722Z,60.39
2022-12-29T21:47:48.113Z,60.47
2022-12-29T21:50:19.186Z,60.41
2022-12-29T21:52:50.041Z,60.52
2022-12-29T21:55:20.929Z,60.44
2022-12-29T21:58:09.201Z,60.59
2022-12-29T22:00:57.918Z,60.45
2022-12-29T22:03:46.733Z,60.18
2022-12-29T22:06:35.885Z,60.42
2022-12-29T22:09:24.720Z,60.59
2022-12-29T22:12:13.099Z,60.57
2022-12-29T22:14:43.984Z,60.45
2022-12-29T22:17:17.885Z,60.56
2022-12-29T22:19:50.140Z,60.54
2022-12-29T22:22:21.088Z,60.46
2022-12-29T22:24:51.908Z,60.49
2022-12-29T22:27:22.850Z,60.61
2022-12-29T22:29:53.754Z,60.45
2022-12-29T22:32:24.597Z,60.43
2022-12-29T22:34:55.433Z,60.40
2022-12-29T22:37:26.363Z,60.51
2022-12-29T22:39:57.262Z,60.38
2022-12-29T22:42:28.082Z,60.37
2022-12-29T22:44:58.937Z,60.43
2022-12-29T22:47:29.907Z,60.43
2022-12-29T22:50:00.793Z,60.36
2022-12-29T22:52:31.832Z,60.43
2022-12-29T22:55:06.716Z,60.39
2022-12-29T22:57:38.621Z,60.31
2022-12-29T23:00:13.191Z,60.46
2022-12-29T23:02:45.466Z,60.29
2022-12-29T23:05:16.576Z,60.29
2022-12-29T23:07:47.469Z,60.22
2022-12-29T23:10:18.537Z,60.29
2022-12-29T23:12:49.269Z,60.27
2022-12-29T23:15:20.036Z,60.39
2022-12-29T23:17:50.810Z,60.20
2022-12-29T23:20:21.657Z,60.46
2022-12-29T23:22:52.459Z,60.49
2022-12-29T23:25:23.205Z,60.36
2022-12-29T23:27:54.021Z,60.44
2022-12-29T23:30:24.887Z,60.41
2022-12-29T23:32:55.708Z,60.38
2022-12-29T23:35:26.622Z,60.40
2022-12-29T23:37:57.663Z,60.37
2022-12-29T23:40:28.497Z,60.34
2022-12-29T23:42:59.275Z,60.43
2022-12-29T23:45:30.051Z,60.42
2022-12-29T23:48:00.778Z,60.49
2022-12-29T23:50:31.817Z,60.57
2022-12-29T23:53:03.432Z,60.40
2022-12-29T23:55:34.200Z,60.47
2022-12-29T23:58:05.046Z,60.53
